Aktualne dane pomiarowe

Uwaga, wersja testowa! Automatyczne pobieranie danych za pomocą narzędzi lub skryptów to umożliwiających jest zabronione.

Dane meteo z obszaru Polski uzyskane na podstawie depesz SYNOP pobieranych co godzinę z NWS. Najedź myszką na symbol przedstawiony w tabeli, aby uzyskać informacje co do jego znaczenia. Prosimy pamiętać, że to testowa wersja strony, która jeszcze nie jest ukończona. Stworzono również jest krótki FAQ dotyczący korzystania z tej podstrony Anomalie temperatury w chwili obecnej odniesione są do okresu referencyjnego 1951-2016. Okres ten będzie później zmieniony na 1981-2010. Kliknij ikonę aby pobrać plik CSV. Kliknij ikonę aby wygenerować mapę synoptyczną dla danego terminu.

Wybierz Datę:    

        

Kalisz (12435)

Dane terminowe dla wybranej stacji. Kliknij datę, aby otrzymać dane z tego terminu dla wszystkich stacji.

TemperaturaZachmurzenieWiatrCiśnienieOpadyPogoda
 Data t td wb tx tn tg rh  Nt Nl Cl Cm Ch ws wd g1 g2 wx mslp ppp ch 24h 12h t ww ww w1 w2  
2019-08-08 23:00:00 17.8 13.7 15.1--- 7750.0wx-wx1wx--11012.5 996.0 1.4---------
2019-08-08 22:00:00 19.5 12.5 15.1--- 6450.0wxwxwxwx3wx--31011.6 995.2 0.7---wx-w1--
2019-08-08 21:00:00 19.3 13.9 15.7--- 7118.0wxwxwx5wx--51011.9 995.5 1.1---wx---
2019-08-08 20:00:00 21.3 13.0 16.1--- 5940.0wxwxwxwx3wx---1010.8 994.6 0.2---------
2019-08-08 19:00:00 21.2 11.8 15.4--- 5550.0wxwxwxwx2wx--21010.8 994.5 0.2---------
2019-08-08 18:00:00 23.2 10.9 15.8 26.3 18.1- 4650.0wxwxwxwx3wx--31010.5 994.4 -0.1- 0.012------
2019-08-08 17:00:00 25.1 10.5 16.4--- 4050.0wxwxwxwxwx6wx--61010.4 994.4 -0.2---------
2019-08-08 16:00:00 26.2 11.1 17.2--- 3935.0wxwxwxwx6wx---1010.3 994.3 -0.5---------
2019-08-08 15:00:00 25.7 12.2 17.5--- 4340.0wxwxwxwx6wx---1010.5 994.5 -0.6---------
2019-08-08 14:00:00 25.1 13.3 17.8--- 4835.0wxwxwxwx5wx--51010.6 994.6 -0.6---------
2019-08-08 13:00:00 25.2 12.8 17.6--- 4640.0wxwxwx4wx--41010.8 994.8 -0.1---------
2019-08-08 12:00:00 25.1 13.0 17.6--- 4735.0wxwxwx5wx--51011.1 995.1 0.2- 0.06------
2019-08-08 11:00:00 24.1 12.7 17.1--- 4930.0wxwxwx7wx--71011.3 995.2 0.9---------
2019-08-08 10:00:00 23.0 12.9 16.7--- 5330.0wxwxwx5wx--51011.1 994.9 0.9---------
2019-08-08 09:00:00 22.0 15.6 17.8--- 6730.0wxwxwx6wx--61011.1 994.9 1.9---------
2019-08-08 08:00:00 20.3 15.9 17.3--- 7626.0wxwxwx5wx--51010.6 994.3 2.0---------
2019-08-08 07:00:00 18.6 16.6 17.2--- 8816.0wxwxwx7wx--71010.4 994.0 2.2---------
2019-08-08 06:00:00 18.1 16.9 17.2 25.4 17.1 17 9314.0wxwxwxwx5wx--51009.4 993.0 1.7 3.8 4.012wx-w1- 3.1
2019-08-08 05:00:00 17.3 16.8 16.9--- 977.0wxwxwx5wx---1008.7 992.3 1.4---wx---
2019-08-08 04:00:00 17.2 16.7 16.8--- 977.0wxwxwx4wx---1008.2 991.8 1.1---wx---
2019-08-08 03:00:00 17.2 16.7 16.8--- 978.0wxwxwxwx5wx--51007.7 991.3 0.8---wx-w1--
2019-08-08 02:00:00 17.6 17.1 17.2--- 978.0wx-wxwx3wx--31007.3 990.9 0.5---wx---
2019-08-08 01:00:00 18.0 17.7 17.8--- 986.0wxwxwx4wx--41007.1 990.7 0.4---wx---
2019-08-08 00:00:00 18.0 17.8 17.8--- 994.0wxwxwx3wx-1131006.9 990.5 0.5- 4.06wx-w1w2--
2019-08-07 23:00:00 18.4 17.9 18.0--- 9710.0wxwxwx4wx--41006.7 990.4 0.7---wx-w1--
2019-08-07 22:00:00 18.4 17.9 18.0--- 9710.0wxwxwx4wx--41006.6 990.3 0.6---wx-w1w2--
2019-08-07 21:00:00 18.7 18.0 18.2--- 9620.0wxwxwx2wx-1121006.3 990.0 0.8---wx-w1w2--
2019-08-07 20:00:00 18.9 17.7 18.0--- 9340.0wxwxwxwx3wx---1006.0 989.7 0.9---------
2019-08-07 19:00:00 19.1 18.1 18.4--- 9415.0wxwxwx2wx---1006.0 989.7 0.4---wx-w1--
2019-08-07 18:00:00 25.4 16.3 19.4 27.8 19.2- 5730.0wxwxwx4wx9941005.1 989.2 -0.3- 0.012------
2019-08-07 17:00:00 26.4 15.4 19.3--- 5145.0wxwxwxwxwx4wx--41004.7 988.8 -1.4---------
2019-08-07 16:00:00 26.7 15.7 19.6--- 5150.0wxwxwxwxwx3wx--31005.2 989.3 -1.4---------
2019-08-07 15:00:00 27.0 16.0 19.9--- 5140.0wxwxwxwxwx3wx-731005.4 989.5 -2.0---------
2019-08-07 14:00:00 26.3 16.0 19.6--- 5345.0wxwxwxwxwx2wx---1006.1 990.2 -2.0---------
2019-08-07 13:00:00 26.8 16.1 19.9--- 5235.0wxwxwxwxwx3wx--31006.6 990.7 -1.6---------
2019-08-07 12:00:00 25.4 16.3 19.4--- 5730.0wxwxwxwxwx3wx--31007.5 991.5 -1.0- 0.06------
2019-08-07 11:00:00 23.8 17.1 19.3--- 6630.0wxwxwxwx3wx--31008.3 992.2 -0.1---------
2019-08-07 10:00:00 22.2 16.9 18.6--- 7222.0wx-wx3wx--31008.5 992.3 0.1---------
2019-08-07 09:00:00 21.8 16.5 18.2--- 7225.0wx-wx2wx--21008.7 992.5 0.5---------
2019-08-07 08:00:00 21.2 16.6 18.1--- 7522.0wx-wx2wx--21008.5 992.3 0.1---------
2019-08-07 07:00:00 20.4 16.4 17.6--- 7824.0wxwxwxwx0---01008.5 992.2 0.1---------
2019-08-07 06:00:00 19.2 16.4 17.2 25.8 16.6 14 8419.0wxwxwxwx0---01008.3 992.0 0.1--12wx-w1- 9.1
2019-08-07 05:00:00 17.6 15.9 16.4--- 9015.0wx-wxwx1wx--11008.6 992.2 0.1---------
2019-08-07 04:00:00 16.7 15.2 15.6--- 9114.0wx-wxwx1wx---1008.6 992.1 -0.1---------
2019-08-07 03:00:00 17.4 15.7 16.2--- 9020.0wxwxwxwxwx2wx--21008.3 991.9 0.0---wx-w1--
2019-08-07 02:00:00 17.0 15.2 15.7--- 8918.0wx-wxwx2wx--21008.6 992.1 0.0---------
2019-08-07 01:00:00 18.8 15.7 16.6--- 8235.0wx-wx3wx--31008.5 992.2 -0.2---wx---
2019-08-07 00:00:00 20.7 15.5 17.2--- 7240.0wxwxwx2wx--21008.1 991.9 0.0--6wx---
1.4 ms

 

Print Friendly, PDF & Email